Time;durP1;ratioP1;P1;durP2;ratioP2;P2;SDS_P1;SDS_P2;PMS_P1;PMS_P2;Temp;Humidity;BMP_temperature;BMP_pressure;BME280_temperature;BME280_humidity;BME280_pressure;Samples;Min_cycle;Max_cycle;Signal;HPM_P1;HPM_P2
2023/09/30 00:02:24;;;;;;;9.50;5.03;;;14.10;99.90;;;;;;5053424;28;21012;-72
2023/09/30 00:04:52;;;;;;;9.47;5.60;;;14.20;99.90;;;;;;5053788;28;20450;-72
2023/09/30 00:07:20;;;;;;;7.03;4.23;;;14.10;99.90;;;;;;5056158;28;21018;-72
2023/09/30 00:09:51;;;;;;;11.50;5.43;;;14.10;99.90;;;;;;5055745;28;20442;-73
2023/09/30 00:12:19;;;;;;;10.70;4.80;;;14.10;99.90;;;;;;5053460;28;20442;-72
2023/09/30 00:14:48;;;;;;;11.30;5.13;;;14.10;99.90;;;;;;5054015;28;20460;-71
2023/09/30 00:17:16;;;;;;;11.70;5.60;;;14.10;99.90;;;;;;5053926;28;20442;-71
2023/09/30 00:19:45;;;;;;;11.70;4.87;;;14.00;99.90;;;;;;5053736;28;20438;-72
2023/09/30 00:22:13;;;;;;;14.33;6.37;;;14.00;99.90;;;;;;5053418;28;20466;-72
2023/09/30 00:24:41;;;;;;;13.73;5.10;;;14.00;99.90;;;;;;5053628;28;20507;-71
2023/09/30 00:27:10;;;;;;;15.20;5.60;;;14.00;99.90;;;;;;5054041;28;20458;-72
2023/09/30 00:29:39;;;;;;;14.17;6.07;;;14.00;99.90;;;;;;5052542;28;20450;-72
2023/09/30 00:32:08;;;;;;;13.43;5.03;;;14.00;99.90;;;;;;5053547;28;20540;-72
2023/09/30 00:34:37;;;;;;;9.30;5.20;;;13.90;99.90;;;;;;5052067;28;20564;-71
2023/09/30 00:37:06;;;;;;;11.43;5.03;;;13.90;99.90;;;;;;5053434;28;20799;-71
2023/09/30 00:39:34;;;;;;;11.60;5.73;;;13.90;99.90;;;;;;5052177;28;20548;-71
2023/09/30 00:42:04;;;;;;;11.17;5.53;;;13.90;99.90;;;;;;5053302;28;20436;-72
2023/09/30 00:44:34;;;;;;;13.87;6.00;;;13.90;99.90;;;;;;5052081;28;20462;-71
2023/09/30 00:47:02;;;;;;;19.27;5.43;;;13.90;99.90;;;;;;5052313;28;20446;-71
2023/09/30 00:49:31;;;;;;;10.87;5.70;;;13.90;99.90;;;;;;5053454;28;20473;-71
2023/09/30 00:52:01;;;;;;;11.37;4.67;;;13.90;99.90;;;;;;5051935;28;20446;-71
2023/09/30 00:54:31;;;;;;;12.90;5.33;;;13.90;99.90;;;;;;5052035;28;20474;-72
2023/09/30 00:57:00;;;;;;;11.07;4.50;;;13.80;99.90;;;;;;5053165;28;20442;-72
2023/09/30 00:59:32;;;;;;;11.10;5.27;;;13.80;99.90;;;;;;5053138;28;20442;-71
2023/09/30 01:02:02;;;;;;;11.80;5.57;;;13.80;99.90;;;;;;5053071;28;20422;-71
2023/09/30 01:04:30;;;;;;;12.90;5.97;;;13.80;99.90;;;;;;5053333;28;20814;-71
2023/09/30 01:06:59;;;;;;;12.70;6.17;;;13.80;99.90;;;;;;5051805;28;20480;-71
2023/09/30 01:09:28;;;;;;;12.70;5.93;;;13.70;99.90;;;;;;5051934;28;20441;-71
2023/09/30 01:11:56;;;;;;;10.87;5.13;;;13.70;99.90;;;;;;5052850;28;20442;-71
2023/09/30 01:14:28;;;;;;;12.60;5.57;;;13.70;99.90;;;;;;5055595;28;20512;-72
2023/09/30 01:16:57;;;;;;;11.40;5.90;;;13.70;99.90;;;;;;5055739;28;20488;-72
2023/09/30 01:19:27;;;;;;;9.20;5.60;;;13.70;99.90;;;;;;5057054;28;20438;-71
2023/09/30 01:21:59;;;;;;;11.40;6.13;;;13.70;99.90;;;;;;5056965;28;20455;-71
2023/09/30 01:24:29;;;;;;;9.90;6.10;;;13.70;99.90;;;;;;5056950;28;20461;-71
2023/09/30 01:26:57;;;;;;;12.03;6.40;;;13.60;99.90;;;;;;5055541;28;20481;-71
2023/09/30 01:29:26;;;;;;;8.57;5.40;;;13.60;99.90;;;;;;5056749;28;20442;-71
2023/09/30 01:31:54;;;;;;;12.50;6.17;;;13.60;99.90;;;;;;5056954;28;20966;-71
2023/09/30 01:34:23;;;;;;;10.23;5.03;;;13.60;99.90;;;;;;5056537;28;20477;-71
2023/09/30 01:36:51;;;;;;;14.13;6.00;;;13.70;99.90;;;;;;5055394;28;20438;-71
2023/09/30 01:39:21;;;;;;;15.93;5.63;;;13.70;99.90;;;;;;5056893;28;20998;-71
2023/09/30 01:41:49;;;;;;;14.13;5.33;;;13.60;99.90;;;;;;5056662;28;20430;-71
2023/09/30 01:44:17;;;;;;;11.60;5.60;;;13.60;99.90;;;;;;5055285;28;20877;-71
2023/09/30 01:46:45;;;;;;;16.10;6.50;;;13.60;99.90;;;;;;5055150;28;20438;-71
2023/09/30 01:49:13;;;;;;;13.93;6.50;;;13.60;99.90;;;;;;5055349;28;20962;-71
2023/09/30 01:51:41;;;;;;;10.20;5.43;;;13.60;99.90;;;;;;5055081;28;20444;-71
2023/09/30 01:54:10;;;;;;;9.30;5.70;;;13.60;99.90;;;;;;5056377;28;20477;-71
2023/09/30 01:56:40;;;;;;;11.70;5.80;;;13.60;99.90;;;;;;5056892;28;20441;-71
2023/09/30 01:59:08;;;;;;;13.43;5.43;;;13.50;99.90;;;;;;5055040;28;20453;-71
2023/09/30 02:01:37;;;;;;;9.33;4.97;;;13.60;99.90;;;;;;5054984;28;20446;-72
2023/09/30 02:04:06;;;;;;;15.30;6.13;;;13.50;99.90;;;;;;5054874;28;20852;-72
2023/09/30 02:06:35;;;;;;;14.90;6.40;;;13.50;99.90;;;;;;5056566;28;20434;-71
2023/09/30 02:09:08;;;;;;;15.10;6.43;;;13.50;99.90;;;;;;5054909;28;20454;-71
2023/09/30 02:11:36;;;;;;;11.70;5.67;;;13.50;99.90;;;;;;5054765;28;20442;-71
2023/09/30 02:14:07;;;;;;;10.30;5.97;;;13.50;99.90;;;;;;5055916;28;21013;-71
2023/09/30 02:16:35;;;;;;;17.13;5.73;;;13.40;99.90;;;;;;5054619;28;20431;-71
2023/09/30 02:19:03;;;;;;;15.70;6.03;;;13.40;99.90;;;;;;5056176;28;20434;-71
2023/09/30 02:21:32;;;;;;;14.30;6.70;;;13.40;99.90;;;;;;5054518;28;20472;-71
2023/09/30 02:24:00;;;;;;;13.30;6.00;;;13.40;99.90;;;;;;5053543;28;20445;-71
2023/09/30 02:26:29;;;;;;;13.60;6.37;;;13.40;99.90;;;;;;5054462;28;20448;-71
2023/09/30 02:28:57;;;;;;;12.23;6.20;;;13.30;99.90;;;;;;5055790;28;20799;-71
2023/09/30 02:31:27;;;;;;;13.17;6.97;;;13.30;99.90;;;;;;5054363;28;20450;-71
2023/09/30 02:33:55;;;;;;;11.27;6.47;;;13.30;99.90;;;;;;5055698;28;20477;-71
2023/09/30 02:36:24;;;;;;;15.80;7.33;;;13.30;99.90;;;;;;5054289;28;20496;-71
2023/09/30 02:38:52;;;;;;;11.33;6.00;;;13.30;99.90;;;;;;5054651;28;20538;-71
2023/09/30 02:41:21;;;;;;;14.30;6.30;;;13.30;99.90;;;;;;5055672;28;20446;-71
2023/09/30 02:43:49;;;;;;;10.77;6.30;;;13.30;99.90;;;;;;5055749;28;20441;-71
2023/09/30 02:46:17;;;;;;;10.43;5.53;;;13.30;99.90;;;;;;5054257;28;20499;-71
2023/09/30 02:48:48;;;;;;;11.53;6.57;;;13.30;99.90;;;;;;5055439;28;20445;-72
2023/09/30 02:51:16;;;;;;;11.70;5.60;;;13.30;99.90;;;;;;5054021;28;20450;-71
2023/09/30 02:53:45;;;;;;;16.77;6.40;;;13.30;99.90;;;;;;5055135;28;20433;-71
2023/09/30 02:56:13;;;;;;;11.90;5.90;;;13.30;99.90;;;;;;5053880;28;20440;-71
2023/09/30 02:58:41;;;;;;;9.93;5.40;;;13.30;99.90;;;;;;5055257;28;20434;-71
2023/09/30 03:01:10;;;;;;;9.40;5.20;;;13.30;99.90;;;;;;5055352;28;20530;-71
2023/09/30 03:03:41;;;;;;;13.80;7.30;;;13.30;99.90;;;;;;5054993;28;20509;-71
2023/09/30 03:06:11;;;;;;;13.33;6.33;;;13.30;99.90;;;;;;5053899;28;20856;-71
2023/09/30 03:08:40;;;;;;;13.67;6.10;;;13.30;99.90;;;;;;5055529;28;20476;-71
2023/09/30 03:11:08;;;;;;;13.03;6.97;;;13.30;99.90;;;;;;5055394;28;20469;-71
2023/09/30 03:13:37;;;;;;;14.30;6.63;;;13.30;99.90;;;;;;5054823;28;20445;-71
2023/09/30 03:16:05;;;;;;;11.30;6.00;;;13.30;99.90;;;;;;5054675;28;21024;-71
2023/09/30 03:18:33;;;;;;;11.37;5.83;;;13.30;99.90;;;;;;5053393;28;20477;-71
2023/09/30 03:21:08;;;;;;;14.80;6.40;;;13.20;99.90;;;;;;5054540;28;20460;-72
2023/09/30 03:23:38;;;;;;;15.90;6.63;;;13.20;99.90;;;;;;5056835;28;20421;-72
2023/09/30 03:26:09;;;;;;;14.80;6.60;;;13.20;99.90;;;;;;5057192;28;20497;-71
2023/09/30 03:28:38;;;;;;;12.70;6.43;;;13.20;99.90;;;;;;5054128;28;20870;-72
2023/09/30 03:31:07;;;;;;;9.77;6.00;;;13.20;99.90;;;;;;5054924;28;20854;-71
2023/09/30 03:33:36;;;;;;;12.30;6.23;;;13.20;99.90;;;;;;5053418;28;20524;-71
2023/09/30 03:36:04;;;;;;;13.93;6.77;;;13.20;99.90;;;;;;5054326;28;20469;-72
2023/09/30 03:38:32;;;;;;;12.60;6.33;;;13.20;99.90;;;;;;5054720;28;20438;-71
2023/09/30 03:41:02;;;;;;;11.73;6.40;;;13.20;99.90;;;;;;5054273;28;20438;-71
2023/09/30 03:43:30;;;;;;;15.57;6.57;;;13.20;99.90;;;;;;5054439;28;20446;-71
2023/09/30 03:45:58;;;;;;;18.10;7.00;;;13.20;99.90;;;;;;5054054;28;20453;-71
2023/09/30 03:48:26;;;;;;;12.80;5.70;;;13.20;99.90;;;;;;5054370;28;20794;-71
2023/09/30 03:50:55;;;;;;;12.70;6.37;;;13.20;99.90;;;;;;5054388;28;20446;-71
2023/09/30 03:53:26;;;;;;;12.10;6.40;;;13.20;99.90;;;;;;5053042;28;20442;-71
2023/09/30 03:55:55;;;;;;;16.50;6.47;;;13.20;99.90;;;;;;5054850;28;20495;-71
2023/09/30 03:58:24;;;;;;;8.70;5.60;;;13.20;99.90;;;;;;5054071;28;20468;-71
2023/09/30 04:00:53;;;;;;;12.40;7.03;;;13.20;99.90;;;;;;5052894;28;20525;-71
2023/09/30 04:03:21;;;;;;;9.27;6.13;;;13.20;99.90;;;;;;5054694;28;20461;-71
2023/09/30 04:05:50;;;;;;;13.40;6.57;;;13.10;99.90;;;;;;5052606;28;20466;-71
2023/09/30 04:08:18;;;;;;;9.47;5.73;;;13.20;99.90;;;;;;5053956;28;20473;-71
2023/09/30 04:10:47;;;;;;;13.83;6.83;;;13.20;99.90;;;;;;5053845;28;20811;-71
2023/09/30 04:13:15;;;;;;;13.40;6.40;;;13.10;99.90;;;;;;5054085;28;20430;-72
2023/09/30 04:15:46;;;;;;;12.17;6.80;;;13.10;99.90;;;;;;5054600;28;20510;-71
2023/09/30 04:18:19;;;;;;;12.87;5.80;;;13.10;99.90;;;;;;5053993;28;20429;-71
2023/09/30 04:20:48;;;;;;;12.63;6.33;;;13.10;99.90;;;;;;5054231;28;20525;-72
2023/09/30 04:23:16;;;;;;;14.10;6.53;;;13.10;99.90;;;;;;5053359;28;20811;-71
2023/09/30 04:25:44;;;;;;;14.80;8.20;;;13.10;99.90;;;;;;5052817;28;20462;-72
2023/09/30 04:28:12;;;;;;;11.13;6.60;;;13.20;99.90;;;;;;5060286;28;20449;-71
2023/09/30 04:30:40;;;;;;;11.67;6.77;;;13.20;99.90;;;;;;5057406;28;20540;-72
2023/09/30 04:33:11;;;;;;;16.83;6.60;;;13.20;99.90;;;;;;5056745;28;20452;-72
2023/09/30 04:35:40;;;;;;;10.77;6.30;;;13.20;99.90;;;;;;5057844;28;20532;-71
2023/09/30 04:38:08;;;;;;;12.43;6.67;;;13.20;99.90;;;;;;5055400;28;20497;-72
2023/09/30 04:40:37;;;;;;;11.83;6.63;;;13.20;99.90;;;;;;5054418;28;20450;-71
2023/09/30 04:43:05;;;;;;;18.10;8.40;;;13.20;99.90;;;;;;5054343;28;20947;-71
2023/09/30 04:45:34;;;;;;;15.90;7.03;;;13.20;99.90;;;;;;5055328;28;21054;-71
2023/09/30 04:48:02;;;;;;;16.43;6.53;;;13.20;99.90;;;;;;5052799;28;20541;-71
2023/09/30 04:50:32;;;;;;;11.60;6.43;;;13.20;99.90;;;;;;5053635;28;20445;-71
2023/09/30 04:53:00;;;;;;;11.80;7.13;;;13.20;99.90;;;;;;5052499;28;20430;-71
2023/09/30 04:55:28;;;;;;;12.03;6.43;;;13.20;99.90;;;;;;5053325;28;20539;-71
2023/09/30 04:57:56;;;;;;;10.43;6.00;;;13.20;99.90;;;;;;5053766;28;20849;-71
2023/09/30 05:00:25;;;;;;;10.63;5.77;;;13.20;99.90;;;;;;5052420;28;20445;-71
2023/09/30 05:02:58;;;;;;;10.83;6.00;;;13.20;99.90;;;;;;5053347;28;20422;-71
2023/09/30 05:05:28;;;;;;;9.53;6.73;;;13.20;99.90;;;;;;5053840;28;20828;-72
2023/09/30 05:07:57;;;;;;;12.90;6.40;;;13.20;99.90;;;;;;5053238;28;20799;-71
2023/09/30 05:10:26;;;;;;;11.50;6.23;;;13.20;99.90;;;;;;5053130;28;20445;-72
2023/09/30 05:12:54;;;;;;;12.60;6.13;;;13.20;99.90;;;;;;5053524;28;20985;-71
2023/09/30 05:15:23;;;;;;;12.10;6.60;;;13.20;99.90;;;;;;5053114;28;20481;-71
2023/09/30 05:17:51;;;;;;;13.80;6.20;;;13.20;99.90;;;;;;5053116;28;20434;-71
2023/09/30 05:20:19;;;;;;;9.17;5.50;;;13.20;99.90;;;;;;5051968;28;20488;-71
2023/09/30 05:22:48;;;;;;;10.63;6.03;;;13.20;99.90;;;;;;5053125;28;20905;-72
2023/09/30 05:25:18;;;;;;;12.37;6.43;;;13.20;99.90;;;;;;5053155;28;20458;-71
2023/09/30 05:27:48;;;;;;;13.20;6.43;;;13.20;99.90;;;;;;5053079;28;20423;-71
2023/09/30 05:30:17;;;;;;;12.87;6.57;;;13.20;99.90;;;;;;5054092;28;20529;-71
2023/09/30 05:32:46;;;;;;;11.43;5.97;;;13.20;99.90;;;;;;5053119;28;20465;-71
2023/09/30 05:35:16;;;;;;;12.97;6.10;;;13.20;99.90;;;;;;5052699;28;20457;-71
2023/09/30 05:37:46;;;;;;;14.10;6.80;;;13.20;99.90;;;;;;5053249;28;20767;-71
2023/09/30 05:40:21;;;;;;;9.50;6.00;;;13.20;99.90;;;;;;5052912;28;20442;-71
2023/09/30 05:42:53;;;;;;;9.23;6.70;;;13.20;99.90;;;;;;5053531;28;20433;-71
2023/09/30 05:45:23;;;;;;;16.03;6.30;;;13.20;99.90;;;;;;5053560;28;20450;-71
2023/09/30 05:47:53;;;;;;;11.13;5.87;;;13.20;99.90;;;;;;5051583;28;20438;-71
2023/09/30 05:50:26;;;;;;;9.60;6.07;;;13.20;99.90;;;;;;5053230;28;20488;-71
2023/09/30 05:52:55;;;;;;;12.10;6.53;;;13.20;99.90;;;;;;5053694;28;20476;-71
2023/09/30 05:55:25;;;;;;;12.43;5.30;;;13.20;99.90;;;;;;5053519;28;20468;-71
2023/09/30 05:57:55;;;;;;;11.30;6.50;;;13.20;99.90;;;;;;5051798;28;20438;-71
2023/09/30 06:00:28;;;;;;;11.13;6.60;;;13.20;99.90;;;;;;5055746;28;20548;-71
2023/09/30 06:02:57;;;;;;;11.50;5.83;;;13.20;99.90;;;;;;5056598;28;20497;-71
2023/09/30 06:05:27;;;;;;;14.23;6.70;;;13.20;99.90;;;;;;5056750;28;20496;-71
2023/09/30 06:07:55;;;;;;;11.43;6.03;;;13.20;99.90;;;;;;5056564;28;20433;-71
2023/09/30 06:10:25;;;;;;;10.50;6.33;;;13.20;99.90;;;;;;5056175;28;20476;-71
2023/09/30 06:12:56;;;;;;;12.43;6.70;;;13.20;99.90;;;;;;5056390;28;20429;-71
2023/09/30 06:15:26;;;;;;;8.13;5.90;;;13.20;99.90;;;;;;5056094;28;20470;-71
2023/09/30 06:17:59;;;;;;;10.70;5.13;;;13.20;99.90;;;;;;5054914;28;20501;-71
2023/09/30 06:20:30;;;;;;;12.67;6.57;;;13.20;99.90;;;;;;5056536;28;20513;-71
2023/09/30 06:23:00;;;;;;;12.50;6.77;;;13.20;99.90;;;;;;5056040;28;20422;-71
2023/09/30 06:25:30;;;;;;;11.10;6.67;;;13.30;99.90;;;;;;5056032;28;20457;-71
2023/09/30 06:28:00;;;;;;;8.80;5.70;;;13.30;99.90;;;;;;5056521;28;20473;-71
2023/09/30 06:30:30;;;;;;;10.60;5.90;;;13.30;99.90;;;;;;5055739;28;20492;-71
2023/09/30 06:33:00;;;;;;;11.50;5.20;;;13.30;99.90;;;;;;5056082;28;20422;-71
2023/09/30 06:35:34;;;;;;;11.43;5.67;;;13.30;99.90;;;;;;5054478;28;20478;-71
2023/09/30 06:38:03;;;;;;;10.07;6.00;;;13.30;99.90;;;;;;5054295;28;21085;-71
2023/09/30 06:40:31;;;;;;;11.17;5.80;;;13.30;99.90;;;;;;5056182;28;20430;-71
2023/09/30 06:43:01;;;;;;;12.53;5.83;;;13.40;99.90;;;;;;5055835;28;20536;-71
2023/09/30 06:45:29;;;;;;;13.33;6.53;;;13.40;99.90;;;;;;5055348;28;20454;-72
2023/09/30 06:47:58;;;;;;;11.37;6.83;;;13.40;99.90;;;;;;5055744;28;20443;-71
2023/09/30 06:50:26;;;;;;;11.90;6.70;;;13.40;99.90;;;;;;5055620;28;20445;-71
2023/09/30 06:52:54;;;;;;;10.30;6.00;;;13.50;99.90;;;;;;5055714;28;20466;-72
2023/09/30 06:55:22;;;;;;;10.90;6.17;;;13.50;99.90;;;;;;5055514;28;21007;-72
2023/09/30 06:57:51;;;;;;;11.67;6.30;;;13.50;99.90;;;;;;5055419;28;20469;-71
2023/09/30 07:00:20;;;;;;;12.23;6.90;;;13.50;99.90;;;;;;5055606;28;20617;-71
2023/09/30 07:02:49;;;;;;;7.70;5.33;;;13.60;99.90;;;;;;5055504;28;20442;-72
2023/09/30 07:05:17;;;;;;;8.50;5.57;;;13.60;99.90;;;;;;5055565;28;20450;-71
2023/09/30 07:07:45;;;;;;;9.70;5.80;;;13.70;99.90;;;;;;5055286;28;20447;-71
2023/09/30 07:10:14;;;;;;;14.43;6.30;;;13.70;99.90;;;;;;5055024;28;20495;-71
2023/09/30 07:12:42;;;;;;;9.80;6.20;;;13.70;99.90;;;;;;5053951;28;20499;-72
2023/09/30 07:15:12;;;;;;;12.57;5.53;;;13.70;99.90;;;;;;5054977;28;20521;-71
2023/09/30 07:17:41;;;;;;;11.10;6.33;;;13.80;99.90;;;;;;5055125;28;21049;-71
2023/09/30 07:20:13;;;;;;;12.00;6.70;;;13.80;99.90;;;;;;5056039;28;20907;-72
2023/09/30 07:22:41;;;;;;;8.33;5.07;;;13.90;99.90;;;;;;5055136;28;20446;-71
2023/09/30 07:25:31;;;;;;;7.00;5.50;;;13.90;99.90;;;;;;5055294;28;20537;-72
2023/09/30 07:27:59;;;;;;;11.00;6.00;;;13.90;99.90;;;;;;5054850;28;20923;-72
2023/09/30 07:30:28;;;;;;;12.00;6.50;;;14.00;99.90;;;;;;5053454;28;20434;-72
2023/09/30 07:32:58;;;;;;;9.90;5.63;;;14.00;99.90;;;;;;5054744;28;20446;-72
2023/09/30 07:35:26;;;;;;;15.03;6.80;;;14.10;99.90;;;;;;5054793;28;20477;-72
2023/09/30 07:37:54;;;;;;;9.50;7.70;;;14.10;99.90;;;;;;5054836;28;20469;-72
2023/09/30 07:40:22;;;;;;;11.30;6.83;;;14.10;99.90;;;;;;5054819;28;20445;-72
2023/09/30 07:42:51;;;;;;;8.17;5.00;;;14.20;99.90;;;;;;5054559;28;20492;-72
2023/09/30 07:45:21;;;;;;;9.80;5.30;;;14.20;99.90;;;;;;5054642;28;20457;-71
2023/09/30 07:47:49;;;;;;;8.90;6.23;;;14.20;99.90;;;;;;5053496;28;21045;-72
2023/09/30 07:50:19;;;;;;;14.23;6.37;;;14.30;99.90;;;;;;5055368;28;20434;-72
2023/09/30 07:52:47;;;;;;;12.77;6.70;;;14.30;99.90;;;;;;5054909;28;20460;-71
2023/09/30 07:55:15;;;;;;;9.67;6.47;;;14.40;99.90;;;;;;5055515;28;20493;-72
2023/09/30 07:57:44;;;;;;;15.13;7.00;;;14.40;99.90;;;;;;5055693;28;20477;-72
2023/09/30 08:00:15;;;;;;;10.83;5.47;;;14.40;99.90;;;;;;5055448;28;20518;-72
2023/09/30 08:02:44;;;;;;;10.40;5.83;;;14.50;99.90;;;;;;5055074;28;20423;-72
2023/09/30 08:05:13;;;;;;;7.90;5.33;;;14.50;99.90;;;;;;5054767;28;20456;-72
2023/09/30 08:07:43;;;;;;;15.53;6.27;;;14.60;99.90;;;;;;5054592;28;20441;-72
2023/09/30 08:10:13;;;;;;;11.03;6.07;;;14.70;99.90;;;;;;5054332;28;20472;-72
2023/09/30 08:12:45;;;;;;;10.63;6.00;;;14.70;99.90;;;;;;5054112;28;20919;-72
2023/09/30 08:15:14;;;;;;;10.57;5.30;;;14.70;99.90;;;;;;5052687;28;20799;-73
2023/09/30 08:17:42;;;;;;;7.30;4.83;;;14.80;99.90;;;;;;5052707;28;20480;-72
2023/09/30 08:20:11;;;;;;;8.10;5.70;;;14.90;99.90;;;;;;5053996;28;20450;-72
2023/09/30 08:22:40;;;;;;;13.17;5.33;;;15.00;99.90;;;;;;5053216;28;20533;-72
2023/09/30 08:25:11;;;;;;;9.43;5.30;;;15.00;99.90;;;;;;5052668;28;21013;-72
2023/09/30 08:27:39;;;;;;;11.07;6.40;;;15.10;99.90;;;;;;5052970;28;20427;-72
2023/09/30 08:30:10;;;;;;;9.70;5.13;;;15.10;99.90;;;;;;5053986;28;20541;-72
2023/09/30 08:32:38;;;;;;;12.00;5.90;;;15.20;99.90;;;;;;5054360;28;20513;-72
2023/09/30 08:35:07;;;;;;;11.70;5.10;;;15.30;99.90;;;;;;5053698;28;20446;-72
2023/09/30 08:37:35;;;;;;;7.23;4.40;;;15.30;99.90;;;;;;5053506;28;20569;-72
2023/09/30 08:40:05;;;;;;;14.50;5.70;;;15.40;99.90;;;;;;5052595;28;20871;-72
2023/09/30 08:42:35;;;;;;;10.10;4.77;;;15.40;99.90;;;;;;5053805;28;20434;-72
2023/09/30 08:45:06;;;;;;;9.80;5.03;;;15.50;99.90;;;;;;5053759;28;20966;-72
2023/09/30 08:47:35;;;;;;;12.50;4.60;;;15.50;99.90;;;;;;5054264;28;20419;-73
2023/09/30 08:50:06;;;;;;;9.00;4.30;;;15.60;99.90;;;;;;5053461;28;20489;-72
2023/09/30 08:52:36;;;;;;;10.47;5.10;;;15.70;99.90;;;;;;5053960;28;20393;-72
2023/09/30 08:55:08;;;;;;;10.97;5.47;;;15.70;99.90;;;;;;5053665;28;20473;-72
2023/09/30 08:57:40;;;;;;;14.73;4.93;;;15.70;99.90;;;;;;5053694;28;20465;-72
2023/09/30 09:00:12;;;;;;;7.87;4.33;;;15.80;99.90;;;;;;5054111;28;20425;-72
2023/09/30 09:02:41;;;;;;;11.67;4.37;;;15.90;99.90;;;;;;5053831;28;20454;-73
2023/09/30 09:05:11;;;;;;;7.90;4.10;;;16.00;99.90;;;;;;5053616;28;20530;-72
2023/09/30 09:07:39;;;;;;;8.30;4.17;;;16.00;99.90;;;;;;5053958;28;20878;-72
2023/09/30 09:10:10;;;;;;;8.47;3.90;;;16.10;99.90;;;;;;5053806;28;20429;-73
2023/09/30 09:12:41;;;;;;;6.83;4.90;;;16.10;99.90;;;;;;5054275;28;20889;-73
2023/09/30 09:15:21;;;;;;;9.63;4.70;;;16.20;99.90;;;;;;5053038;28;20440;-72
2023/09/30 09:17:51;;;;;;;7.90;3.90;;;16.30;99.90;;;;;;5054202;28;20454;-73
2023/09/30 09:20:21;;;;;;;10.43;4.07;;;16.30;99.90;;;;;;5054627;28;20525;-73
2023/09/30 09:22:53;;;;;;;8.77;3.80;;;16.40;99.90;;;;;;5054176;28;20434;-73
2023/09/30 09:25:23;;;;;;;10.47;4.40;;;16.50;99.90;;;;;;5052972;28;20895;-73
2023/09/30 09:27:53;;;;;;;7.33;3.60;;;16.50;99.90;;;;;;5054230;28;20462;-73
2023/09/30 09:30:24;;;;;;;6.10;3.53;;;16.60;99.90;;;;;;5054162;28;20397;-73
2023/09/30 09:33:00;;;;;;;5.60;3.80;;;16.70;99.90;;;;;;5055235;28;20436;-72
2023/09/30 09:35:30;;;;;;;8.27;4.33;;;16.70;99.90;;;;;;5058132;28;20986;-73
2023/09/30 09:37:59;;;;;;;8.00;4.67;;;16.80;99.90;;;;;;5057837;28;20462;-73
2023/09/30 09:40:29;;;;;;;8.63;4.63;;;16.90;99.90;;;;;;5058250;28;20923;-73
2023/09/30 09:42:59;;;;;;;7.50;3.83;;;16.90;99.90;;;;;;5057860;28;20776;-73
2023/09/30 09:45:32;;;;;;;10.67;4.00;;;17.00;99.90;;;;;;5057496;28;20455;-73
2023/09/30 09:48:01;;;;;;;5.83;4.33;;;17.00;99.90;;;;;;5056412;28;20898;-73
2023/09/30 09:50:31;;;;;;;10.80;3.87;;;17.10;99.90;;;;;;5057734;28;20792;-73
2023/09/30 09:53:00;;;;;;;8.20;4.00;;;17.10;99.90;;;;;;5057838;28;20430;-73
2023/09/30 09:55:29;;;;;;;8.43;3.27;;;17.20;99.90;;;;;;5057484;28;20436;-73
2023/09/30 09:57:59;;;;;;;7.20;3.00;;;17.30;99.90;;;;;;5057564;28;20440;-73
2023/09/30 10:00:30;;;;;;;6.80;4.10;;;17.30;99.90;;;;;;5057625;28;20396;-73
2023/09/30 10:02:58;;;;;;;5.77;2.90;;;17.30;99.90;;;;;;5056116;28;20500;-73
2023/09/30 10:05:28;;;;;;;8.50;2.77;;;17.40;99.90;;;;;;5057341;28;20874;-73
2023/09/30 10:08:01;;;;;;;10.00;3.00;;;17.40;99.90;;;;;;5057107;28;20459;-73
2023/09/30 10:10:31;;;;;;;4.70;2.50;;;17.50;99.90;;;;;;5055900;28;20788;-73
2023/09/30 10:13:02;;;;;;;7.00;3.00;;;17.50;99.90;;;;;;5057047;28;20465;-73
2023/09/30 10:15:43;;;;;;;8.67;2.93;;;17.60;99.90;;;;;;5055554;28;20986;-73
2023/09/30 10:18:12;;;;;;;6.93;2.53;;;17.70;99.90;;;;;;5057476;28;20440;-73
2023/09/30 10:20:47;;;;;;;4.90;3.17;;;17.70;99.90;;;;;;5056776;28;20513;-73
2023/09/30 10:23:32;;;;;;;6.00;2.70;;;17.80;99.90;;;;;;5056048;28;20413;-73
2023/09/30 10:26:18;;;;;;;6.40;3.57;;;17.80;99.90;;;;;;5055827;28;20424;-73
2023/09/30 10:28:50;;;;;;;7.33;3.53;;;17.80;99.90;;;;;;5056185;28;20397;-73
2023/09/30 10:31:20;;;;;;;6.20;2.57;;;17.90;99.90;;;;;;5055941;28;20913;-73
2023/09/30 10:34:21;;;;;;;8.23;2.80;;;17.90;99.90;;;;;;5055693;28;20442;-73
2023/09/30 10:36:52;;;;;;;6.93;2.13;;;18.00;99.90;;;;;;5055894;28;20442;-73
2023/09/30 10:39:56;;;;;;;5.00;2.00;;;18.00;99.90;;;;;;5054200;28;20466;-73
2023/09/30 10:42:51;;;;;;;3.93;1.90;;;18.10;99.90;;;;;;5055716;28;20894;-73
2023/09/30 10:45:54;;;;;;;5.97;2.60;;;18.10;99.90;;;;;;5054264;28;20912;-73
2023/09/30 10:48:38;;;;;;;5.90;2.30;;;18.10;99.90;;;;;;4977914;28;20419;-73
2023/09/30 10:51:14;;;;;;;5.37;2.13;;;18.10;99.90;;;;;;4994274;28;20887;-73
2023/09/30 10:53:45;;;;;;;5.20;2.13;;;18.10;99.90;;;;;;5032953;28;20434;-73
2023/09/30 10:56:13;;;;;;;5.40;2.40;;;18.20;99.90;;;;;;5055717;28;20501;-73
2023/09/30 10:58:45;;;;;;;8.33;2.43;;;18.20;99.90;;;;;;5055494;28;20548;-73
2023/09/30 11:01:16;;;;;;;5.93;2.10;;;18.20;99.90;;;;;;5055460;28;20469;-73
2023/09/30 11:03:46;;;;;;;4.13;1.80;;;18.20;99.90;;;;;;5055268;28;20829;-73
2023/09/30 11:06:17;;;;;;;5.93;1.83;;;18.20;99.90;;;;;;5055210;28;20453;-73
2023/09/30 11:08:50;;;;;;;7.27;2.80;;;18.20;99.90;;;;;;5055665;28;20454;-73
2023/09/30 11:11:18;;;;;;;6.03;2.10;;;18.20;99.90;;;;;;5055726;28;20484;-73
2023/09/30 11:13:46;;;;;;;4.77;1.90;;;18.30;99.90;;;;;;5054868;28;20409;-73
2023/09/30 11:16:16;;;;;;;5.60;2.07;;;18.30;99.90;;;;;;5054746;28;20466;-73
2023/09/30 11:18:44;;;;;;;4.80;1.80;;;18.40;99.90;;;;;;5054940;28;20524;-73
2023/09/30 11:21:14;;;;;;;5.37;2.17;;;18.40;99.90;;;;;;5054550;28;20527;-73
2023/09/30 11:23:43;;;;;;;6.00;2.23;;;18.50;99.90;;;;;;5054861;28;20508;-73
2023/09/30 11:26:13;;;;;;;8.07;2.07;;;18.50;99.90;;;;;;5055581;28;20458;-73
2023/09/30 11:28:44;;;;;;;7.20;2.13;;;18.60;99.90;;;;;;5063557;22;20999;-74
2023/09/30 11:31:14;;;;;;;5.30;2.10;;;18.60;99.90;;;;;;5035087;28;20427;-74
2023/09/30 11:33:52;;;;;;;5.07;2.30;;;18.70;99.90;;;;;;5034772;28;20439;-73
2023/09/30 11:36:22;;;;;;;5.77;2.50;;;18.70;99.90;;;;;;5015016;28;20439;-73
2023/09/30 11:38:52;;;;;;;4.67;1.90;;;18.80;99.90;;;;;;5013504;28;20479;-73
2023/09/30 11:41:21;;;;;;;7.90;2.30;;;18.80;99.90;;;;;;5014911;28;20482;-73
2023/09/30 11:44:07;;;;;;;6.30;2.47;;;18.80;99.90;;;;;;5014686;28;20440;-73
2023/09/30 11:46:53;;;;;;;6.60;2.20;;;18.90;99.90;;;;;;5013460;28;20468;-73
2023/09/30 11:49:34;;;;;;;4.47;2.00;;;18.90;99.90;;;;;;5014721;28;20428;-73
2023/09/30 11:52:06;;;;;;;4.10;1.73;;;18.90;99.90;;;;;;5014917;28;20557;-73
2023/09/30 11:54:39;;;;;;;4.50;1.83;;;19.00;99.90;;;;;;5014738;28;20459;-73
2023/09/30 11:57:09;;;;;;;4.47;2.00;;;19.00;99.90;;;;;;5014585;28;20858;-73
2023/09/30 11:59:39;;;;;;;5.93;1.90;;;19.00;99.90;;;;;;5013703;28;20479;-73
2023/09/30 12:02:08;;;;;;;5.20;2.20;;;19.00;99.90;;;;;;5014193;28;20443;-73
2023/09/30 12:04:44;;;;;;;4.50;2.40;;;19.10;99.90;;;;;;5013145;28;20475;-73
2023/09/30 12:07:13;;;;;;;6.10;2.70;;;19.10;99.90;;;;;;5014779;28;20435;-73
2023/09/30 12:09:42;;;;;;;4.90;2.07;;;19.10;99.90;;;;;;5014430;28;20827;-73
2023/09/30 12:12:12;;;;;;;3.10;1.80;;;19.20;99.90;;;;;;5014079;28;20409;-73
2023/09/30 12:14:40;;;;;;;4.67;2.00;;;19.20;99.90;;;;;;5013945;28;20555;-73
2023/09/30 12:17:10;;;;;;;4.20;1.60;;;19.20;99.90;;;;;;5012783;28;20502;-73
2023/09/30 12:19:40;;;;;;;6.97;1.90;;;19.20;99.90;;;;;;5014242;28;20460;-73
2023/09/30 12:22:11;;;;;;;4.53;1.67;;;19.20;99.90;;;;;;5012711;28;20531;-73
2023/09/30 12:24:40;;;;;;;9.83;2.33;;;19.20;99.90;;;;;;5013470;28;20503;-73
2023/09/30 12:27:09;;;;;;;5.70;2.27;;;19.20;99.90;;;;;;5014354;28;20424;-73
2023/09/30 12:29:38;;;;;;;3.73;1.70;;;19.20;99.90;;;;;;5013763;28;20786;-73
2023/09/30 12:32:07;;;;;;;4.60;1.87;;;19.20;99.90;;;;;;5014035;28;20439;-73
2023/09/30 12:34:35;;;;;;;3.77;1.33;;;19.20;99.90;;;;;;5013682;28;20456;-73
2023/09/30 12:37:04;;;;;;;4.87;2.10;;;19.20;99.90;;;;;;5012571;28;20452;-73
2023/09/30 12:39:36;;;;;;;8.73;3.23;;;19.20;99.90;;;;;;5013909;28;20824;-73
2023/09/30 12:42:08;;;;;;;7.07;1.90;;;19.20;99.90;;;;;;5013889;28;20507;-73
2023/09/30 12:44:37;;;;;;;7.77;2.57;;;19.20;99.90;;;;;;5013552;28;20466;-73
2023/09/30 12:47:06;;;;;;;9.03;2.27;;;19.20;99.90;;;;;;5013708;28;20465;-73
2023/09/30 12:49:34;;;;;;;3.20;1.50;;;19.20;99.90;;;;;;5013686;28;20443;-73
2023/09/30 12:52:03;;;;;;;2.77;1.40;;;19.30;99.90;;;;;;5013699;28;20440;-73
2023/09/30 12:54:33;;;;;;;3.30;1.60;;;19.30;99.90;;;;;;5014044;28;21003;-73
2023/09/30 12:57:02;;;;;;;4.87;1.80;;;19.30;99.90;;;;;;5014571;28;20500;-73